Time;durP1;ratioP1;P1;durP2;ratioP2;P2;SDS_P1;SDS_P2;PMS_P1;PMS_P2;Temp;Humidity;BMP_temperature;BMP_pressure;BME280_temperature;BME280_humidity;BME280_pressure;Samples;Min_cycle;Max_cycle;Signal;HPM_P1;HPM_P2
2024/01/19 00:02:18;;;;;;;25.27;12.77;;;;;;;4.13;100.00;97033.84;4500195;31;20096;-74
2024/01/19 00:04:47;;;;;;;31.92;13.25;;;;;;;4.20;100.00;97039.28;4498753;31;20552;-74
2024/01/19 00:07:15;;;;;;;24.87;12.10;;;;;;;4.19;100.00;97037.66;4500085;31;20100;-74
2024/01/19 00:09:46;;;;;;;32.15;14.20;;;;;;;4.14;100.00;97050.22;4499921;31;20164;-74
2024/01/19 00:12:14;;;;;;;26.02;12.98;;;;;;;4.13;100.00;97053.75;4499991;31;20111;-74
2024/01/19 00:14:41;;;;;;;30.95;14.55;;;;;;;4.08;100.00;97057.56;4499900;31;20144;-74
2024/01/19 00:17:09;;;;;;;22.70;11.25;;;;;;;4.07;100.00;97071.50;4500242;31;20095;-74
2024/01/19 00:19:36;;;;;;;27.65;12.68;;;;;;;4.04;100.00;97091.66;4486504;31;20123;-74
2024/01/19 00:22:04;;;;;;;33.38;15.57;;;;;;;3.88;100.00;97089.66;4484041;31;20100;-74
2024/01/19 00:24:32;;;;;;;27.62;13.38;;;;;;;3.76;100.00;97098.50;4484014;31;20439;-74
2024/01/19 00:27:00;;;;;;;34.88;15.00;;;;;;;3.71;100.00;97101.50;4483999;31;20161;-74
2024/01/19 00:29:28;;;;;;;21.73;9.93;;;;;;;3.61;100.00;97117.03;4485481;31;20088;-74
2024/01/19 00:31:56;;;;;;;22.70;11.07;;;;;;;3.47;100.00;97117.41;4499632;31;20488;-74
2024/01/19 00:34:24;;;;;;;27.50;11.73;;;;;;;3.27;100.00;97114.78;4499637;31;20096;-73
2024/01/19 00:36:53;;;;;;;24.23;10.18;;;;;;;3.10;100.00;97123.16;4499801;31;20596;-74
2024/01/19 00:39:20;;;;;;;28.92;12.90;;;;;;;3.05;100.00;97117.56;4499827;31;20103;-74
2024/01/19 00:41:49;;;;;;;25.33;10.57;;;;;;;2.92;100.00;97115.19;4499495;31;20152;-74
2024/01/19 00:44:16;;;;;;;25.30;11.63;;;;;;;2.73;100.00;97137.44;4499646;31;20130;-74
2024/01/19 00:46:44;;;;;;;22.50;11.45;;;;;;;2.63;100.00;97147.72;4499516;31;20643;-73
2024/01/19 00:49:12;;;;;;;26.35;8.90;;;;;;;2.55;100.00;97149.31;4499645;31;20104;-74
2024/01/19 00:51:39;;;;;;;19.35;8.25;;;;;;;2.44;100.00;97147.62;4499432;31;20096;-74
2024/01/19 00:54:07;;;;;;;21.60;10.25;;;;;;;2.30;100.00;97146.12;4498042;31;20447;-73
2024/01/19 00:56:35;;;;;;;21.67;9.35;;;;;;;2.17;100.00;97145.53;4499313;31;20096;-73
2024/01/19 00:59:03;;;;;;;12.57;6.62;;;;;;;2.05;100.00;97184.28;4499322;31;20112;-73
2024/01/19 01:01:31;;;;;;;14.90;8.13;;;;;;;1.81;100.00;97160.44;4499129;31;20096;-73
2024/01/19 01:03:59;;;;;;;19.90;7.87;;;;;;;1.71;100.00;97160.34;4499232;31;20088;-74
2024/01/19 01:06:26;;;;;;;13.95;7.18;;;;;;;1.53;100.00;97163.44;4499235;31;20104;-73
2024/01/19 01:08:58;;;;;;;16.08;8.38;;;;;;;1.37;100.00;97156.06;4499225;31;20084;-73
2024/01/19 01:11:27;;;;;;;19.75;7.75;;;;;;;1.27;100.00;97156.91;4499045;31;20104;-74
2024/01/19 01:13:55;;;;;;;20.40;8.98;;;;;;;1.16;100.00;97173.19;4498775;31;20544;-73
2024/01/19 01:16:22;;;;;;;19.45;8.25;;;;;;;1.02;100.00;97189.72;4500619;31;20139;-73
2024/01/19 01:18:50;;;;;;;20.98;9.63;;;;;;;0.83;100.00;97188.53;4493303;31;20521;-73
2024/01/19 01:21:18;;;;;;;16.73;7.18;;;;;;;0.65;100.00;97188.16;4485578;31;20426;-73
2024/01/19 01:23:45;;;;;;;16.55;8.70;;;;;;;0.59;100.00;97190.34;4485554;32;20609;-74
2024/01/19 01:26:13;;;;;;;21.25;9.32;;;;;;;0.44;100.00;97198.31;4485456;31;20096;-73
2024/01/19 01:28:40;;;;;;;23.40;8.52;;;;;;;0.33;100.00;97198.25;4485684;31;20575;-73
2024/01/19 01:31:08;;;;;;;20.27;8.85;;;;;;;0.22;100.00;97214.47;4498306;31;20104;-73
2024/01/19 01:33:36;;;;;;;23.30;10.10;;;;;;;0.19;100.00;97214.72;4501220;31;20215;-73
2024/01/19 01:36:05;;;;;;;24.52;10.50;;;;;;;0.06;100.00;97225.06;4501285;31;20129;-73
2024/01/19 01:38:33;;;;;;;26.90;9.63;;;;;;;-0.01;100.00;97234.97;4501295;31;20167;-73
2024/01/19 01:41:00;;;;;;;21.10;8.43;;;;;;;-0.08;100.00;97245.81;4501314;31;20136;-73
2024/01/19 01:43:28;;;;;;;22.05;10.55;;;;;;;-0.06;100.00;97254.25;4500908;31;20521;-73
2024/01/19 01:45:57;;;;;;;30.48;9.45;;;;;;;-0.16;100.00;97258.41;4501419;31;20092;-73
2024/01/19 01:48:26;;;;;;;16.37;8.55;;;;;;;-0.09;100.00;97269.91;4501125;31;20091;-73
2024/01/19 01:50:54;;;;;;;25.60;10.90;;;;;;;-0.16;100.00;97277.25;4501174;31;20096;-73
2024/01/19 01:53:22;;;;;;;21.00;9.13;;;;;;;-0.20;100.00;97271.50;4501455;31;20096;-74
2024/01/19 01:55:51;;;;;;;25.23;8.70;;;;;;;-0.20;100.00;97284.38;4501042;31;20088;-73
2024/01/19 01:58:19;;;;;;;21.70;9.73;;;;;;;-0.25;100.00;97285.59;4501194;31;20444;-73
2024/01/19 02:00:46;;;;;;;21.42;8.77;;;;;;;-0.29;100.00;97273.88;4501050;31;20173;-73
2024/01/19 02:03:14;;;;;;;19.52;8.48;;;;;;;-0.35;100.00;97262.25;4499618;31;20400;-73
2024/01/19 02:05:42;;;;;;;25.10;12.50;;;;;;;-0.46;100.00;97282.75;4499786;31;20522;-73
2024/01/19 02:08:10;;;;;;;30.17;9.77;;;;;;;-0.55;100.00;97264.44;4501012;31;20080;-73
2024/01/19 02:10:38;;;;;;;17.02;7.20;;;;;;;-0.57;100.00;97276.59;4501087;31;20151;-73
2024/01/19 02:13:06;;;;;;;21.77;10.25;;;;;;;-0.58;100.00;97274.13;4501013;31;20134;-73
2024/01/19 02:15:37;;;;;;;17.02;8.13;;;;;;;-0.64;100.00;97275.34;4501247;31;20096;-73
2024/01/19 02:18:05;;;;;;;20.73;8.32;;;;;;;-0.65;100.00;97285.75;4498124;31;20107;-73
2024/01/19 02:20:32;;;;;;;27.37;10.52;;;;;;;-0.74;100.00;97282.88;4485128;32;20239;-73
2024/01/19 02:23:02;;;;;;;17.33;8.73;;;;;;;-0.74;100.00;97305.22;4483920;32;20500;-73
2024/01/19 02:25:30;;;;;;;20.80;8.68;;;;;;;-0.76;100.00;97309.59;4485212;32;20156;-73
2024/01/19 02:27:57;;;;;;;17.02;8.52;;;;;;;-0.77;100.00;97315.69;4483019;32;20116;-73
2024/01/19 02:30:25;;;;;;;19.00;8.57;;;;;;;-0.79;100.00;97309.81;4492822;31;20143;-73
2024/01/19 02:33:00;;;;;;;20.85;9.70;;;;;;;-0.82;100.00;97310.03;4500985;31;20110;-73
2024/01/19 02:35:29;;;;;;;27.00;10.32;;;;;;;-0.81;100.00;97303.97;4500712;31;20507;-73
2024/01/19 02:37:56;;;;;;;25.12;10.25;;;;;;;-0.84;100.00;97296.47;4500877;31;20477;-73
2024/01/19 02:40:23;;;;;;;21.02;8.73;;;;;;;-0.83;100.00;97322.06;4500862;31;20093;-73
2024/01/19 02:42:53;;;;;;;24.02;8.75;;;;;;;-0.81;100.00;97332.25;4500815;31;20477;-73
2024/01/19 02:45:20;;;;;;;21.35;8.85;;;;;;;-0.82;100.00;97328.03;4500650;31;20480;-73
2024/01/19 02:47:48;;;;;;;16.98;7.87;;;;;;;-0.77;100.00;97342.22;4500827;31;20151;-73
2024/01/19 02:50:16;;;;;;;19.55;9.35;;;;;;;-0.76;100.00;97353.31;4500950;31;20113;-73
2024/01/19 02:52:43;;;;;;;26.12;9.88;;;;;;;-0.77;100.00;97356.84;4500433;31;20126;-73
2024/01/19 02:55:11;;;;;;;22.02;9.23;;;;;;;-0.73;100.00;97368.53;4500762;31;20522;-73
2024/01/19 02:57:38;;;;;;;23.48;9.13;;;;;;;-0.73;100.00;97371.97;4500477;31;20509;-73
2024/01/19 03:00:07;;;;;;;16.27;7.50;;;;;;;-0.77;100.00;97373.09;4500794;31;20512;-73
2024/01/19 03:02:35;;;;;;;18.52;8.15;;;;;;;-0.68;100.00;97404.25;4500732;31;20104;-73
2024/01/19 03:05:03;;;;;;;23.30;9.43;;;;;;;-0.69;100.00;97395.72;4500681;31;20107;-73
2024/01/19 03:07:30;;;;;;;26.23;10.13;;;;;;;-0.62;100.00;97402.13;4500729;31;20091;-73
2024/01/19 03:09:58;;;;;;;19.87;7.53;;;;;;;-0.66;100.00;97405.81;4500954;31;20100;-73
2024/01/19 03:12:26;;;;;;;18.42;8.00;;;;;;;-0.64;100.00;97408.28;4500655;31;20095;-73
2024/01/19 03:14:53;;;;;;;19.25;8.48;;;;;;;-0.61;100.00;97429.47;4500545;31;20123;-73
2024/01/19 03:17:21;;;;;;;25.75;8.05;;;;;;;-0.61;100.00;97441.50;4500457;31;20529;-73
2024/01/19 03:19:48;;;;;;;20.12;7.40;;;;;;;-0.57;100.00;97427.53;4486030;31;20591;-73
2024/01/19 03:22:16;;;;;;;22.02;8.30;;;;;;;-0.52;100.00;97470.94;4484721;31;20092;-73
2024/01/19 03:24:44;;;;;;;15.80;8.02;;;;;;;-0.49;100.00;97443.25;4484957;31;20114;-73
2024/01/19 03:27:11;;;;;;;18.02;7.28;;;;;;;-0.54;100.00;97448.72;4485083;32;20152;-73
2024/01/19 03:29:39;;;;;;;15.75;8.43;;;;;;;-0.54;100.00;97458.19;4487525;31;20619;-73
2024/01/19 03:32:06;;;;;;;20.83;7.85;;;;;;;-0.53;100.00;97475.25;4500764;31;20096;-73
2024/01/19 03:34:34;;;;;;;16.50;7.15;;;;;;;-0.57;100.00;97466.94;4500168;31;20171;-73
2024/01/19 03:37:03;;;;;;;20.85;8.07;;;;;;;-0.55;100.00;97482.25;4500591;31;20469;-73
2024/01/19 03:39:32;;;;;;;15.95;8.38;;;;;;;-0.55;100.00;97467.62;4500270;31;20563;-74
2024/01/19 03:42:00;;;;;;;16.83;8.48;;;;;;;-0.60;100.00;97487.69;4500228;31;20114;-73
2024/01/19 03:44:28;;;;;;;11.98;6.40;;;;;;;-0.59;100.00;97489.34;4500633;31;20088;-73
2024/01/19 03:46:56;;;;;;;12.52;6.40;;;;;;;-0.61;100.00;97491.19;4500336;31;20151;-73
2024/01/19 03:49:26;;;;;;;17.40;7.82;;;;;;;-0.58;100.00;97496.13;4500513;31;20099;-73
2024/01/19 03:52:03;;;;;;;14.18;6.35;;;;;;;-0.55;100.00;97488.22;4500411;31;20108;-73
2024/01/19 03:54:35;;;;;;;15.75;7.20;;;;;;;-0.59;100.00;97509.09;4500281;31;20560;-73
2024/01/19 03:57:05;;;;;;;13.27;6.50;;;;;;;-0.62;100.00;97502.41;4500347;31;20445;-73
2024/01/19 03:59:33;;;;;;;13.10;6.32;;;;;;;-0.60;100.00;97498.00;4500288;31;20088;-73
2024/01/19 04:02:01;;;;;;;14.70;7.00;;;;;;;-0.65;100.00;97497.47;4500133;31;20114;-73
2024/01/19 04:04:28;;;;;;;17.23;8.93;;;;;;;-0.58;100.00;97495.31;4500100;31;20121;-73
2024/01/19 04:06:56;;;;;;;15.35;7.00;;;;;;;-0.61;100.00;97501.47;4500046;31;20091;-73
2024/01/19 04:09:24;;;;;;;13.43;6.28;;;;;;;-0.68;100.00;97505.38;4500180;31;20096;-73
2024/01/19 04:11:52;;;;;;;19.20;8.07;;;;;;;-0.62;100.00;97505.00;4500013;31;20158;-73
2024/01/19 04:14:20;;;;;;;10.88;6.07;;;;;;;-0.63;100.00;97512.81;4499933;31;20155;-73
2024/01/19 04:16:47;;;;;;;16.12;6.45;;;;;;;-0.66;100.00;97516.37;4500195;31;20092;-73
2024/01/19 04:19:16;;;;;;;17.33;7.72;;;;;;;-0.67;100.00;97519.88;4488891;31;20096;-73
2024/01/19 04:21:43;;;;;;;16.50;6.65;;;;;;;-0.68;100.00;97528.53;4484000;31;20130;-73
2024/01/19 04:24:11;;;;;;;18.00;6.40;;;;;;;-0.65;100.00;97524.91;4484289;31;20173;-73
2024/01/19 04:26:39;;;;;;;17.23;6.55;;;;;;;-0.68;100.00;97541.38;4484097;31;20157;-73
2024/01/19 04:29:07;;;;;;;19.35;7.05;;;;;;;-0.67;100.00;97532.72;4484318;31;20084;-73
2024/01/19 04:31:34;;;;;;;13.93;6.25;;;;;;;-0.69;100.00;97533.78;4499663;31;20126;-73
2024/01/19 04:34:04;;;;;;;15.05;6.68;;;;;;;-0.67;100.00;97573.06;4499836;31;20100;-73
2024/01/19 04:36:31;;;;;;;14.20;6.25;;;;;;;-0.73;100.00;97556.25;4499553;31;20134;-73
2024/01/19 04:38:59;;;;;;;11.12;5.78;;;;;;;-0.76;100.00;97552.16;4499881;31;20096;-73
2024/01/19 04:41:27;;;;;;;11.70;6.47;;;;;;;-0.77;100.00;97552.25;4499683;31;20088;-73
2024/01/19 04:43:54;;;;;;;10.15;4.62;;;;;;;-0.76;100.00;97569.31;4499747;31;20088;-73
2024/01/19 04:46:22;;;;;;;12.93;5.95;;;;;;;-0.77;100.00;97563.34;4499716;31;20089;-73
2024/01/19 04:48:50;;;;;;;11.63;5.57;;;;;;;-0.83;100.00;97565.47;4499402;31;20088;-73
2024/01/19 04:51:17;;;;;;;16.80;6.78;;;;;;;-0.79;100.00;97565.22;4500812;31;20092;-73
2024/01/19 04:53:45;;;;;;;13.80;5.47;;;;;;;-0.79;100.00;97572.94;4500269;31;20745;-73
2024/01/19 04:56:13;;;;;;;15.07;6.28;;;;;;;-0.78;100.00;97599.44;4501561;31;20104;-73
2024/01/19 04:58:40;;;;;;;13.68;6.55;;;;;;;-0.84;100.00;97587.78;4501890;31;20096;-73
2024/01/19 05:01:08;;;;;;;12.75;5.65;;;;;;;-0.79;100.00;97584.94;4501948;31;20118;-73
2024/01/19 05:03:36;;;;;;;14.70;6.03;;;;;;;-0.78;100.00;97604.59;4501649;31;20122;-73
2024/01/19 05:06:03;;;;;;;12.45;6.05;;;;;;;-0.85;100.00;97604.12;4501503;31;20164;-73
2024/01/19 05:08:31;;;;;;;13.07;4.60;;;;;;;-0.86;100.00;97619.66;4500910;31;20522;-72
2024/01/19 05:10:59;;;;;;;10.25;6.12;;;;;;;-0.87;100.00;97618.03;4497272;31;20092;-73
2024/01/19 05:13:27;;;;;;;13.23;5.03;;;;;;;-0.86;100.00;97622.22;4492894;31;20148;-73
2024/01/19 05:15:54;;;;;;;11.07;5.03;;;;;;;-0.86;100.00;97609.38;4512011;31;20099;-72
2024/01/19 05:18:22;;;;;;;11.73;4.75;;;;;;;-0.90;100.00;97624.97;4504266;31;20118;-73
2024/01/19 05:20:50;;;;;;;12.00;5.75;;;;;;;-0.87;100.00;97618.03;4500366;31;20401;-73
2024/01/19 05:23:17;;;;;;;13.90;5.80;;;;;;;-0.89;100.00;97618.13;4499910;31;20097;-73
2024/01/19 05:25:45;;;;;;;10.30;5.62;;;;;;;-0.94;100.00;97623.53;4496220;31;20104;-73
2024/01/19 05:28:14;;;;;;;11.93;5.03;;;;;;;-0.92;100.00;97623.44;4495442;31;20131;-73
2024/01/19 05:30:42;;;;;;;19.52;6.75;;;;;;;-0.90;100.00;97617.28;4503861;31;20110;-73
2024/01/19 05:33:10;;;;;;;13.43;5.00;;;;;;;-0.94;100.00;97618.41;4514331;31;20099;-73
2024/01/19 05:35:38;;;;;;;11.68;6.28;;;;;;;-0.94;100.00;97597.84;4514471;31;20170;-73
2024/01/19 05:38:06;;;;;;;12.25;4.70;;;;;;;-0.99;100.00;97612.69;4512754;31;20537;-73
2024/01/19 05:40:33;;;;;;;10.98;4.72;;;;;;;-0.97;100.00;97602.31;4501230;31;20100;-73
2024/01/19 05:43:03;;;;;;;9.65;4.70;;;;;;;-0.98;100.00;97591.22;4494900;31;20139;-73
2024/01/19 05:45:30;;;;;;;13.07;5.30;;;;;;;-1.02;100.00;97599.22;4510613;31;20172;-73
2024/01/19 05:47:58;;;;;;;9.55;4.40;;;;;;;-1.01;100.00;97611.16;4516844;31;20095;-74
2024/01/19 05:50:26;;;;;;;11.40;4.28;;;;;;;-1.03;100.00;97590.69;4511014;31;20103;-74
2024/01/19 05:52:59;;;;;;;8.73;3.97;;;;;;;-1.01;100.00;97606.84;4492021;31;20151;-74
2024/01/19 05:55:28;;;;;;;13.48;4.87;;;;;;;-0.98;100.00;97598.13;4500605;31;20091;-74
2024/01/19 05:57:58;;;;;;;10.30;5.05;;;;;;;-1.07;100.00;97604.62;4486710;31;20118;-74
2024/01/19 06:00:26;;;;;;;11.65;6.43;;;;;;;-1.06;100.00;97619.12;4491845;31;20100;-73
2024/01/19 06:02:55;;;;;;;9.43;4.55;;;;;;;-1.05;100.00;97625.91;4488728;31;20551;-74
2024/01/19 06:05:22;;;;;;;7.62;3.65;;;;;;;-1.05;100.00;97631.06;4488654;31;20133;-74
2024/01/19 06:07:52;;;;;;;6.95;3.90;;;;;;;-1.04;100.00;97637.03;4489709;31;21013;-74
2024/01/19 06:10:21;;;;;;;11.23;5.35;;;;;;;-1.07;100.00;97658.59;4500475;31;20088;-73
2024/01/19 06:12:49;;;;;;;10.88;4.28;;;;;;;-1.05;100.00;97637.94;4500152;31;20527;-73
2024/01/19 06:15:16;;;;;;;8.93;3.87;;;;;;;-1.09;100.00;97651.00;4497282;31;20123;-73
2024/01/19 06:17:45;;;;;;;6.65;3.28;;;;;;;-1.09;100.00;97648.41;4486686;31;20108;-74
2024/01/19 06:20:12;;;;;;;8.73;4.70;;;;;;;-1.04;100.00;97661.00;4492702;31;20102;-74
2024/01/19 06:22:40;;;;;;;6.53;3.78;;;;;;;-1.08;100.00;97668.03;4493499;31;20092;-74
2024/01/19 06:25:08;;;;;;;8.05;3.45;;;;;;;-1.05;100.00;97663.66;4506806;31;20103;-74
2024/01/19 06:27:35;;;;;;;9.23;4.32;;;;;;;-1.05;100.00;97695.31;4508461;31;20113;-73
2024/01/19 06:30:04;;;;;;;6.50;3.30;;;;;;;-1.04;100.00;97680.75;4501117;31;20104;-74
2024/01/19 06:32:32;;;;;;;8.80;3.65;;;;;;;-1.03;100.00;97693.50;4489472;31;20118;-74
2024/01/19 06:35:01;;;;;;;9.88;4.60;;;;;;;-1.02;100.00;97702.84;4493550;31;20134;-74
2024/01/19 06:37:28;;;;;;;6.00;3.12;;;;;;;-1.06;100.00;97716.78;4497366;31;20608;-74
2024/01/19 06:39:56;;;;;;;4.72;2.03;;;;;;;-1.02;100.00;97738.84;4497921;31;20112;-74
2024/01/19 06:42:24;;;;;;;6.10;3.75;;;;;;;-1.01;100.00;97724.25;4493804;31;20103;-74
2024/01/19 06:44:51;;;;;;;11.48;2.85;;;;;;;-1.03;100.00;97721.78;4496932;31;20095;-75
2024/01/19 06:47:19;;;;;;;8.20;4.20;;;;;;;-1.04;100.00;97730.41;4503656;31;20100;-74
2024/01/19 06:49:47;;;;;;;6.82;3.25;;;;;;;-1.04;100.00;97753.53;4496868;31;20503;-74
2024/01/19 06:52:15;;;;;;;5.87;2.53;;;;;;;-1.02;100.00;97754.25;4497170;31;20121;-73
2024/01/19 06:54:43;;;;;;;7.43;3.58;;;;;;;-1.02;100.00;97759.41;4502430;31;20108;-74
2024/01/19 06:57:10;;;;;;;9.70;3.28;;;;;;;-1.03;100.00;97770.63;4494610;31;20092;-75
2024/01/19 06:59:37;;;;;;;5.05;2.55;;;;;;;-0.99;100.00;97784.09;4496369;31;20202;-73
2024/01/19 07:02:05;;;;;;;5.25;2.20;;;;;;;-0.96;100.00;97796.78;4496419;31;20108;-74
2024/01/19 07:04:33;;;;;;;4.72;2.65;;;;;;;-1.00;100.00;97824.41;4508589;31;20130;-74
2024/01/19 07:07:00;;;;;;;4.47;2.42;;;;;;;-0.99;100.00;97828.63;4504747;31;20088;-76
2024/01/19 07:09:28;;;;;;;6.47;3.33;;;;;;;-1.01;100.00;97832.22;4496040;31;20096;-75
2024/01/19 07:11:55;;;;;;;9.02;2.72;;;;;;;-0.97;100.00;97833.69;4495928;31;20806;-74
2024/01/19 07:14:24;;;;;;;13.02;3.12;;;;;;;-0.97;100.00;97846.53;4487134;31;20088;-75
2024/01/19 07:16:52;;;;;;;11.07;3.80;;;;;;;-0.97;100.00;97872.22;4495537;31;20131;-74
2024/01/19 07:19:19;;;;;;;6.07;2.80;;;;;;;-0.93;100.00;97855.72;4496808;31;20609;-75
2024/01/19 07:21:46;;;;;;;7.07;2.45;;;;;;;-0.93;100.00;97856.53;4498952;31;20092;-75
2024/01/19 07:24:14;;;;;;;11.35;3.50;;;;;;;-0.96;100.00;97864.44;4500086;31;20542;-75
2024/01/19 07:26:41;;;;;;;7.57;3.17;;;;;;;-0.92;100.00;97876.22;4503336;31;20148;-75
2024/01/19 07:29:09;;;;;;;6.55;3.47;;;;;;;-0.93;100.00;97871.97;4495914;31;20108;-73
2024/01/19 07:31:37;;;;;;;4.68;2.30;;;;;;;-0.98;100.00;97883.44;4504026;31;20145;-75
2024/01/19 07:34:04;;;;;;;7.00;2.83;;;;;;;-0.96;100.00;97887.56;4502465;31;20500;-76
2024/01/19 07:36:32;;;;;;;5.30;2.62;;;;;;;-0.84;100.00;97910.94;4504951;31;20132;-75
2024/01/19 07:38:59;;;;;;;6.07;2.53;;;;;;;-0.88;100.00;97899.16;4494503;31;20088;-74
2024/01/19 07:41:27;;;;;;;5.07;2.72;;;;;;;-0.90;100.00;97914.69;4492628;31;20132;-75
2024/01/19 07:43:55;;;;;;;7.35;3.08;;;;;;;-0.91;100.00;97911.28;4495607;31;20092;-75
2024/01/19 07:46:25;;;;;;;3.50;1.87;;;;;;;-0.99;100.00;97918.59;4498643;31;20104;-76
2024/01/19 07:48:52;;;;;;;10.00;3.28;;;;;;;-0.95;100.00;97930.38;4497307;31;20119;-77
2024/01/19 07:51:22;;;;;;;7.07;2.83;;;;;;;-0.97;100.00;97941.66;4492114;31;20092;-75
2024/01/19 07:53:49;;;;;;;10.05;3.20;;;;;;;-0.93;100.00;97935.44;4484360;31;20096;-78
2024/01/19 07:56:19;;;;;;;10.15;3.00;;;;;;;-1.01;100.00;97933.28;4484242;31;20093;-75
2024/01/19 07:58:46;;;;;;;6.45;2.85;;;;;;;-0.98;100.00;97932.28;4493853;31;20105;-75
2024/01/19 08:01:14;;;;;;;7.37;2.78;;;;;;;-0.98;100.00;97945.97;4487467;31;20118;-75
2024/01/19 08:03:42;;;;;;;5.28;1.98;;;;;;;-1.01;100.00;97937.59;4494690;31;20161;-74
2024/01/19 08:06:11;;;;;;;8.02;2.25;;;;;;;-0.92;100.00;97934.53;4487240;31;20540;-73
2024/01/19 08:08:38;;;;;;;5.78;2.33;;;;;;;-0.94;100.00;97934.59;4498389;31;20096;-72
2024/01/19 08:11:06;;;;;;;8.07;2.75;;;;;;;-0.94;100.00;97918.34;4494650;31;20160;-74
2024/01/19 08:13:33;;;;;;;5.85;2.70;;;;;;;-1.03;100.00;97922.28;4492065;31;20092;-74
2024/01/19 08:16:00;;;;;;;6.57;2.90;;;;;;;-0.99;100.00;97922.91;4492353;31;20503;-73
2024/01/19 08:18:33;;;;;;;9.52;2.83;;;;;;;-0.97;100.00;97924.50;4497592;31;20104;-72
2024/01/19 08:21:04;;;;;;;7.70;2.80;;;;;;;-1.02;100.00;97929.06;4491070;31;20456;-72
2024/01/19 08:23:32;;;;;;;5.35;3.10;;;;;;;-1.10;100.00;97928.66;4497540;31;20103;-72
2024/01/19 08:25:59;;;;;;;5.82;2.67;;;;;;;-1.03;100.00;97937.69;4506047;31;20121;-72
2024/01/19 08:28:28;;;;;;;14.85;4.20;;;;;;;-1.00;100.00;97958.09;4494216;31;20108;-73
2024/01/19 08:30:55;;;;;;;8.77;2.83;;;;;;;-0.98;100.00;97971.69;4495377;31;20088;-73
2024/01/19 08:33:22;;;;;;;10.18;3.05;;;;;;;-0.94;100.00;97972.31;4488950;31;20176;-73
2024/01/19 08:35:49;;;;;;;6.55;3.28;;;;;;;-0.89;100.00;97975.50;4490065;31;20088;-75
2024/01/19 08:38:17;;;;;;;8.07;3.15;;;;;;;-0.87;100.00;97990.84;4498981;31;20096;-73
2024/01/19 08:40:44;;;;;;;7.78;3.42;;;;;;;-0.87;100.00;97993.41;4496449;31;20080;-72
2024/01/19 08:43:11;;;;;;;5.97;3.05;;;;;;;-0.88;100.00;97991.72;4492758;31;20527;-72
2024/01/19 08:45:39;;;;;;;8.05;3.83;;;;;;;-0.93;100.00;97995.38;4493257;31;20119;-72
2024/01/19 08:48:06;;;;;;;6.25;2.78;;;;;;;-0.87;100.00;97998.53;4495748;31;20122;-74
2024/01/19 08:50:33;;;;;;;9.40;3.35;;;;;;;-0.92;100.00;97997.03;4492957;31;20126;-72
2024/01/19 08:53:02;;;;;;;6.45;2.95;;;;;;;-0.98;100.00;97997.37;4495141;31;20431;-74
2024/01/19 08:55:30;;;;;;;9.50;3.55;;;;;;;-1.02;100.00;98006.16;4486950;31;20096;-76
2024/01/19 08:57:57;;;;;;;9.52;3.58;;;;;;;-1.03;100.00;97994.25;4492183;31;20084;-72
2024/01/19 09:00:27;;;;;;;6.75;3.08;;;;;;;-1.13;100.00;97987.94;4496570;31;20117;-74
2024/01/19 09:02:56;;;;;;;9.43;3.92;;;;;;;-1.18;100.00;97985.62;4490200;31;20138;-73
2024/01/19 09:05:31;;;;;;;;;;;;;;;-1.18;100.00;97995.06;4491162;31;20160;-74
2024/01/19 09:07:59;;;;;;;7.05;2.92;;;;;;;-1.19;100.00;97983.13;4499563;31;20047;-75
2024/01/19 09:10:29;;;;;;;8.40;3.42;;;;;;;-1.25;100.00;97992.81;4499294;31;20091;-74
2024/01/19 09:12:59;;;;;;;6.15;3.37;;;;;;;-1.16;100.00;97990.69;4489113;31;20097;-73
2024/01/19 09:15:26;;;;;;;7.78;3.42;;;;;;;-1.21;100.00;97993.50;4488242;31;20121;-73
2024/01/19 09:18:07;;;;;;;6.50;3.15;;;;;;;-1.19;100.00;97996.00;4499612;31;20457;-74
2024/01/19 09:20:35;;;;;;;10.07;3.55;;;;;;;-1.19;100.00;97996.81;4502003;31;20151;-74
2024/01/19 09:23:03;;;;;;;7.70;2.72;;;;;;;-1.19;100.00;98008.84;4494266;31;21034;-74
2024/01/19 09:25:30;;;;;;;9.00;3.90;;;;;;;-1.20;100.00;98000.28;4499651;31;20116;-74
2024/01/19 09:27:59;;;;;;;7.82;3.55;;;;;;;-1.21;100.00;98002.94;4495468;31;20123;-76
2024/01/19 09:30:27;;;;;;;10.60;3.47;;;;;;;-1.25;100.00;97990.25;4492742;31;20621;-74
2024/01/19 09:32:55;;;;;;;10.73;3.95;;;;;;;-1.22;100.00;98011.56;4491994;31;20146;-73
2024/01/19 09:35:23;;;;;;;7.15;3.28;;;;;;;-1.18;100.00;98016.47;4495509;31;20151;-73
2024/01/19 09:37:51;;;;;;;9.65;4.28;;;;;;;-1.17;100.00;98020.66;4504743;31;20140;-75
2024/01/19 09:40:20;;;;;;;7.93;3.33;;;;;;;-1.21;100.00;98010.63;4489853;31;20103;-73
2024/01/19 09:42:55;;;;;;;9.95;3.85;;;;;;;-1.16;100.00;98026.66;4493280;31;20099;-73
2024/01/19 09:45:26;;;;;;;9.30;3.37;;;;;;;-1.17;100.00;98027.56;4490873;31;20119;-73
2024/01/19 09:48:11;;;;;;;7.95;3.22;;;;;;;-1.19;100.00;98048.19;4494262;31;20434;-74
2024/01/19 09:50:41;;;;;;;8.77;3.62;;;;;;;-1.40;100.00;98029.59;4490697;31;20100;-73
2024/01/19 09:53:27;;;;;;;8.38;3.75;;;;;;;-1.62;100.00;98024.75;4493216;31;20118;-73
2024/01/19 09:55:54;;;;;;;9.15;4.43;;;;;;;-1.69;100.00;98024.25;4494299;31;21151;-73
2024/01/19 09:58:22;;;;;;;11.00;4.07;;;;;;;-1.66;100.00;98024.09;4489076;31;20108;-73
2024/01/19 10:00:50;;;;;;;10.40;4.62;;;;;;;-1.64;100.00;98044.56;4494937;31;20092;-74
2024/01/19 10:03:18;;;;;;;7.10;3.53;;;;;;;-1.52;100.00;98045.66;4491804;31;20135;-73
2024/01/19 10:05:48;;;;;;;10.57;4.05;;;;;;;-1.43;100.00;98042.63;4489722;31;20095;-73
2024/01/19 10:08:17;;;;;;;13.60;4.40;;;;;;;-1.33;100.00;98046.38;4496500;31;20112;-73
2024/01/19 10:10:47;;;;;;;9.10;3.53;;;;;;;-1.17;100.00;98042.97;4494975;31;20110;-74
2024/01/19 10:13:14;;;;;;;8.52;4.12;;;;;;;-1.13;100.00;98041.91;4496898;31;20161;-75
2024/01/19 10:15:43;;;;;;;12.02;3.65;;;;;;;-1.03;100.00;98050.81;4493470;31;20131;-77
2024/01/19 10:18:10;;;;;;;10.82;3.15;;;;;;;-1.04;100.00;98044.00;4491244;31;20089;-73
2024/01/19 10:20:38;;;;;;;6.15;3.83;;;;;;;-1.02;100.00;98057.56;4490635;31;20426;-76
2024/01/19 10:23:20;;;;;;;8.82;4.30;;;;;;;-1.11;100.00;98050.37;4494383;31;20479;-75
2024/01/19 10:25:50;;;;;;;11.12;4.78;;;;;;;-1.13;100.00;98062.47;4493790;31;20465;-74
2024/01/19 10:28:33;;;;;;;9.77;4.03;;;;;;;-1.15;100.00;98077.12;4493357;31;20104;-75
2024/01/19 10:31:17;;;;;;;14.57;5.30;;;;;;;-1.17;100.00;98099.53;4501737;31;20096;-76
2024/01/19 10:33:51;;;;;;;10.60;4.65;;;;;;;-1.27;100.00;98097.44;4490770;31;20096;-74
2024/01/19 10:36:20;;;;;;;12.65;4.50;;;;;;;-1.23;100.00;98110.13;4492865;31;20084;-74
2024/01/19 10:38:48;;;;;;;13.13;5.22;;;;;;;-1.30;100.00;98119.91;4489118;31;20499;-74
2024/01/19 10:41:17;;;;;;;10.45;4.18;;;;;;;-1.21;100.00;98116.84;4493852;31;20092;-74
2024/01/19 10:43:45;;;;;;;13.85;4.78;;;;;;;-1.19;100.00;98130.44;4498155;31;20092;-74
2024/01/19 10:46:26;;;;;;;8.88;4.60;;;;;;;-1.19;100.00;98137.34;4489747;31;20100;-73
2024/01/19 10:48:53;;;;;;;20.17;5.43;;;;;;;-1.27;100.00;98143.69;4492752;31;20560;-74
2024/01/19 10:51:21;;;;;;;9.73;4.50;;;;;;;-1.29;100.00;98150.66;4495288;31;20076;-74
2024/01/19 10:53:49;;;;;;;11.82;5.28;;;;;;;-1.18;100.00;98169.81;4497333;31;20093;-73
2024/01/19 10:56:20;;;;;;;8.77;4.22;;;;;;;-1.16;100.00;98170.59;4495036;31;20529;-73
2024/01/19 10:58:48;;;;;;;10.52;4.60;;;;;;;-1.02;100.00;98180.16;4493129;31;20435;-74
2024/01/19 11:01:16;;;;;;;17.75;4.85;;;;;;;-1.01;100.00;98180.06;4478828;31;20160;-73
2024/01/19 11:03:45;;;;;;;7.22;3.80;;;;;;;-1.04;100.00;98192.25;4489711;31;20089;-73
2024/01/19 11:06:13;;;;;;;19.95;4.97;;;;;;;-1.00;100.00;98209.16;4501319;31;20459;-72
2024/01/19 11:08:40;;;;;;;15.63;4.47;;;;;;;-1.04;100.00;98192.25;4494146;31;20144;-73
2024/01/19 11:11:09;;;;;;;13.43;4.15;;;;;;;-0.95;100.00;98202.91;4492353;31;20526;-75
2024/01/19 11:13:40;;;;;;;8.70;4.12;;;;;;;-0.97;100.00;98211.59;4493712;31;20232;-72
2024/01/19 11:16:11;;;;;;;12.18;4.60;;;;;;;-0.93;100.00;98219.06;4491058;31;20477;-73
2024/01/19 11:18:39;;;;;;;8.25;4.00;;;;;;;-0.95;100.00;98218.31;4494756;31;20483;-75
2024/01/19 11:21:06;;;;;;;7.78;3.65;;;;;;;-0.87;100.00;98217.91;4487070;31;20131;-73
2024/01/19 11:23:37;;;;;;;10.00;4.45;;;;;;;-0.87;100.00;98224.81;4483723;31;20123;-74
2024/01/19 11:26:11;;;;;;;11.05;4.30;;;;;;;-0.87;100.00;98230.78;4495410;31;20132;-73